AUR8ET EGJB-EGTE
Flight info
| Callsign | AUR8ET |
|---|---|
| Flight time | 0h 25m |
| Altitude | 10000 |
| Route | SKERY L22 EMWIP P16 FIMCA N22 BHD N864 DAWLY |
| Aircraft | A320/M-SDE3FGHIRWY/LB1 |
Departure
| Time | 2026-04-22 19:39 |
|---|---|
| Airport | Guernsey Airport (EGJB) |
Arrival
| Time | 2026-04-22 20:05 |
|---|---|
| Airport | Exeter International Airport (EGTE) |
| Time | Latitude | Longitude | Altitude | Speed | Heading |
|---|---|---|---|---|---|
| 2026-04-22 19:10 | 49.43273 | -2.59563 | 328 ft | 0 kts | 177° |
| 2026-04-22 19:28 | 49.43274 | -2.59563 | 328 ft | 0 kts | 177° |
| 2026-04-22 19:32 | 49.43295 | -2.59564 | 302 ft | 4 kts | 177° |
| 2026-04-22 19:32 | 49.43322 | -2.59565 | 327 ft | 3 kts | 178° |
| 2026-04-22 19:32 | 49.43344 | -2.59564 | 327 ft | 4 kts | 203° |
| 2026-04-22 19:33 | 49.43361 | -2.59540 | 329 ft | 4 kts | 253° |
| 2026-04-22 19:33 | 49.43365 | -2.59500 | 329 ft | 3 kts | 267° |
| 2026-04-22 19:33 | 49.43365 | -2.59495 | 329 ft | 6 kts | 267° |
| 2026-04-22 19:36 | 49.43365 | -2.59508 | 329 ft | 7 kts | 267° |
| 2026-04-22 19:37 | 49.43356 | -2.59723 | 327 ft | 25 kts | 258° |
| 2026-04-22 19:37 | 49.43340 | -2.60022 | 312 ft | 32 kts | 268° |
| 2026-04-22 19:37 | 49.43331 | -2.60407 | 294 ft | 32 kts | 268° |
| 2026-04-22 19:37 | 49.43336 | -2.60676 | 297 ft | 24 kts | 280° |
| 2026-04-22 19:38 | 49.43364 | -2.60920 | 308 ft | 21 kts | 278° |
| 2026-04-22 19:38 | 49.43361 | -2.61135 | 312 ft | 21 kts | 267° |
| 2026-04-22 19:38 | 49.43405 | -2.61327 | 315 ft | 19 kts | 314° |
| 2026-04-22 19:38 | 49.43467 | -2.61323 | 315 ft | 3 kts | 89° |
| 2026-04-22 19:39 | 49.43475 | -2.61038 | 312 ft | 70 kts | 88° |
| 2026-04-22 19:39 | 49.43508 | -2.59873 | 413 ft | 132 kts | 86° |
| 2026-04-22 19:39 | 49.43533 | -2.59011 | 1068 ft | 115 kts | 86° |
| 2026-04-22 19:39 | 49.43564 | -2.58185 | 1633 ft | 117 kts | 90° |
| 2026-04-22 19:40 | 49.43605 | -2.56455 | 2041 ft | 135 kts | 91° |
| 2026-04-22 19:40 | 49.43639 | -2.54876 | 2160 ft | 163 kts | 91° |
| 2026-04-22 19:40 | 49.43682 | -2.52999 | 2432 ft | 189 kts | 91° |
| 2026-04-22 19:40 | 49.43881 | -2.50865 | 2824 ft | 217 kts | 77° |
| 2026-04-22 19:41 | 49.44605 | -2.48668 | 3423 ft | 244 kts | 58° |
| 2026-04-22 19:41 | 49.45896 | -2.46851 | 4252 ft | 262 kts | 36° |
| 2026-04-22 19:41 | 49.47640 | -2.45846 | 5118 ft | 276 kts | 12° |
| 2026-04-22 19:41 | 49.49589 | -2.46004 | 6010 ft | 286 kts | 347° |
| 2026-04-22 19:42 | 49.51386 | -2.47427 | 6925 ft | 296 kts | 321° |
| 2026-04-22 19:42 | 49.52645 | -2.49922 | 7866 ft | 299 kts | 296° |
| 2026-04-22 19:42 | 49.53460 | -2.52869 | 8825 ft | 300 kts | 292° |
| 2026-04-22 19:42 | 49.54241 | -2.55787 | 9834 ft | 298 kts | 292° |
| 2026-04-22 19:43 | 49.56318 | -2.61573 | 10753 ft | 331 kts | 308° |
| 2026-04-22 19:43 | 49.57743 | -2.64418 | 11350 ft | 339 kts | 308° |
| 2026-04-22 19:43 | 49.59190 | -2.67306 | 12091 ft | 342 kts | 308° |
| 2026-04-22 19:44 | 49.60646 | -2.70224 | 12884 ft | 344 kts | 306° |
| 2026-04-22 19:44 | 49.61885 | -2.73387 | 13672 ft | 346 kts | 297° |
| 2026-04-22 19:44 | 49.62900 | -2.76763 | 14402 ft | 348 kts | 292° |
| 2026-04-22 19:44 | 49.63795 | -2.80256 | 15033 ft | 352 kts | 290° |
| 2026-04-22 19:45 | 49.64646 | -2.83813 | 15658 ft | 356 kts | 290° |
| 2026-04-22 19:45 | 49.65510 | -2.87412 | 16091 ft | 360 kts | 290° |
| 2026-04-22 19:45 | 49.66409 | -2.91036 | 16195 ft | 362 kts | 291° |
| 2026-04-22 19:45 | 49.67452 | -2.94593 | 16226 ft | 365 kts | 300° |
| 2026-04-22 19:46 | 49.68961 | -2.97755 | 16227 ft | 366 kts | 312° |
| 2026-04-22 19:46 | 49.70868 | -3.00359 | 16225 ft | 367 kts | 324° |
| 2026-04-22 19:46 | 49.73031 | -3.02401 | 16224 ft | 357 kts | 330° |
| 2026-04-22 19:46 | 49.75131 | -3.04280 | 16225 ft | 340 kts | 329° |
| 2026-04-22 19:47 | 49.77125 | -3.06078 | 16207 ft | 325 kts | 329° |
| 2026-04-22 19:47 | 49.79053 | -3.07822 | 16092 ft | 314 kts | 329° |
| 2026-04-22 19:47 | 49.80861 | -3.09461 | 16195 ft | 298 kts | 329° |
| 2026-04-22 19:47 | 49.82607 | -3.11044 | 16224 ft | 284 kts | 329° |
| 2026-04-22 19:48 | 49.84296 | -3.12576 | 16028 ft | 279 kts | 329° |
| 2026-04-22 19:48 | 49.85955 | -3.14083 | 15853 ft | 273 kts | 329° |
| 2026-04-22 19:48 | 49.87576 | -3.15554 | 15678 ft | 267 kts | 329° |
| 2026-04-22 19:48 | 49.89160 | -3.16987 | 15509 ft | 261 kts | 329° |
| 2026-04-22 19:49 | 49.90752 | -3.18430 | 15354 ft | 280 kts | 329° |
| 2026-04-22 19:49 | 49.92537 | -3.20056 | 15085 ft | 308 kts | 329° |
| 2026-04-22 19:49 | 49.94405 | -3.21754 | 14820 ft | 312 kts | 329° |
| 2026-04-22 19:49 | 49.96280 | -3.23462 | 14557 ft | 312 kts | 328° |
| 2026-04-22 19:50 | 49.98153 | -3.25168 | 14286 ft | 311 kts | 329° |
| 2026-04-22 19:50 | 50.00018 | -3.26863 | 14030 ft | 310 kts | 329° |
| 2026-04-22 19:50 | 50.01879 | -3.28559 | 13748 ft | 309 kts | 328° |
| 2026-04-22 19:50 | 50.03731 | -3.30252 | 13452 ft | 308 kts | 328° |
| 2026-04-22 19:51 | 50.05578 | -3.31941 | 13160 ft | 306 kts | 329° |
| 2026-04-22 19:51 | 50.07417 | -3.33524 | 12874 ft | 305 kts | 332° |
| 2026-04-22 19:51 | 50.09300 | -3.35042 | 12598 ft | 304 kts | 333° |
| 2026-04-22 19:51 | 50.11188 | -3.36525 | 12323 ft | 304 kts | 333° |
| 2026-04-22 19:52 | 50.13073 | -3.38002 | 12057 ft | 302 kts | 332° |
| 2026-04-22 19:52 | 50.14951 | -3.39486 | 11803 ft | 303 kts | 332° |
| 2026-04-22 19:52 | 50.16826 | -3.40983 | 11556 ft | 303 kts | 332° |
| 2026-04-22 19:52 | 50.18699 | -3.42484 | 11305 ft | 302 kts | 332° |
| 2026-04-22 19:53 | 50.20562 | -3.43984 | 11073 ft | 302 kts | 332° |
| 2026-04-22 19:53 | 50.22427 | -3.45491 | 10829 ft | 301 kts | 332° |
| 2026-04-22 19:53 | 50.24292 | -3.46998 | 10588 ft | 302 kts | 332° |
| 2026-04-22 19:53 | 50.26156 | -3.48507 | 10345 ft | 300 kts | 332° |
| 2026-04-22 19:54 | 50.28021 | -3.49974 | 10152 ft | 299 kts | 336° |
| 2026-04-22 19:54 | 50.29960 | -3.51076 | 10004 ft | 292 kts | 341° |
| 2026-04-22 19:54 | 50.31875 | -3.52119 | 9681 ft | 290 kts | 341° |
| 2026-04-22 19:54 | 50.33777 | -3.53156 | 9360 ft | 289 kts | 341° |
| 2026-04-22 19:55 | 50.35672 | -3.54189 | 9053 ft | 288 kts | 342° |
| 2026-04-22 19:55 | 50.37553 | -3.55218 | 8749 ft | 286 kts | 342° |
| 2026-04-22 19:55 | 50.39427 | -3.56246 | 8443 ft | 285 kts | 342° |
| 2026-04-22 19:55 | 50.41293 | -3.57273 | 8137 ft | 284 kts | 343° |
| 2026-04-22 19:56 | 50.43153 | -3.58296 | 7842 ft | 283 kts | 342° |
| 2026-04-22 19:56 | 50.45006 | -3.59318 | 7544 ft | 282 kts | 342° |
| 2026-04-22 19:56 | 50.46853 | -3.60335 | 7256 ft | 281 kts | 343° |
| 2026-04-22 19:56 | 50.48669 | -3.61335 | 6968 ft | 280 kts | 343° |
| 2026-04-22 19:57 | 50.50505 | -3.62345 | 6671 ft | 278 kts | 344° |
| 2026-04-22 19:57 | 50.52285 | -3.63328 | 6408 ft | 265 kts | 344° |
| 2026-04-22 19:57 | 50.53978 | -3.64269 | 6150 ft | 251 kts | 343° |
| 2026-04-22 19:57 | 50.55586 | -3.65162 | 5892 ft | 239 kts | 344° |
| 2026-04-22 19:58 | 50.57115 | -3.66013 | 5640 ft | 227 kts | 343° |
| 2026-04-22 19:58 | 50.58580 | -3.66824 | 5379 ft | 219 kts | 345° |
| 2026-04-22 19:58 | 50.59997 | -3.67602 | 5125 ft | 214 kts | 344° |
| 2026-04-22 19:58 | 50.61400 | -3.68372 | 4875 ft | 213 kts | 344° |
| 2026-04-22 19:59 | 50.62798 | -3.69133 | 4610 ft | 212 kts | 348° |
| 2026-04-22 20:00 | 50.69497 | -3.64552 | 3036 ft | 160 kts | 63° |
| 2026-04-22 20:00 | 50.69993 | -3.63072 | 2780 ft | 147 kts | 80° |
| 2026-04-22 20:01 | 50.70240 | -3.61588 | 2565 ft | 138 kts | 84° |
| 2026-04-22 20:01 | 50.70470 | -3.60132 | 2381 ft | 135 kts | 83° |
| 2026-04-22 20:01 | 50.70694 | -3.58719 | 2210 ft | 132 kts | 83° |
| 2026-04-22 20:01 | 50.70913 | -3.57336 | 2026 ft | 129 kts | 83° |
| 2026-04-22 20:02 | 50.71131 | -3.55955 | 1836 ft | 132 kts | 82° |
| 2026-04-22 20:02 | 50.71351 | -3.54563 | 1662 ft | 129 kts | 81° |
| 2026-04-22 20:02 | 50.71568 | -3.53194 | 1479 ft | 129 kts | 82° |
| 2026-04-22 20:02 | 50.71785 | -3.51818 | 1305 ft | 129 kts | 82° |
| 2026-04-22 20:03 | 50.72004 | -3.50432 | 1120 ft | 132 kts | 79° |
| 2026-04-22 20:03 | 50.72224 | -3.49039 | 948 ft | 130 kts | 78° |
| 2026-04-22 20:03 | 50.72442 | -3.47656 | 766 ft | 132 kts | 78° |
| 2026-04-22 20:03 | 50.72663 | -3.46253 | 592 ft | 130 kts | 77° |
| 2026-04-22 20:04 | 50.72888 | -3.44876 | 427 ft | 129 kts | 79° |
| 2026-04-22 20:04 | 50.73105 | -3.43514 | 250 ft | 127 kts | 79° |
| 2026-04-22 20:04 | 50.73307 | -3.42182 | 112 ft | 113 kts | 76° |
| 2026-04-22 20:04 | 50.73441 | -3.41315 | 98 ft | 55 kts | 76° |
| 2026-04-22 20:05 | 50.73454 | -3.41067 | 100 ft | 10 kts | 147° |
| 2026-04-22 20:05 | 50.73381 | -3.41049 | 100 ft | 12 kts | 174° |
| 2026-04-22 20:05 | 50.73285 | -3.41056 | 100 ft | 16 kts | 194° |
| 2026-04-22 20:05 | 50.73217 | -3.41188 | 99 ft | 17 kts | 258° |
| 2026-04-22 20:06 | 50.73208 | -3.41392 | 99 ft | 20 kts | 271° |
| 2026-04-22 20:06 | 50.73219 | -3.41622 | 101 ft | 19 kts | 279° |
| 2026-04-22 20:06 | 50.73193 | -3.41781 | 102 ft | 15 kts | 242° |
| 2026-04-22 20:06 | 50.73149 | -3.41891 | 99 ft | 3 kts | 223° |
| 2026-04-22 20:07 | 50.73143 | -3.41888 | 100 ft | 3 kts | 166° |
| 2026-04-22 20:07 | 50.73112 | -3.41837 | 99 ft | 9 kts | 131° |
| 2026-04-22 20:07 | 50.73102 | -3.41819 | 99 ft | 0 kts | 131° |
| 2026-04-22 20:13 | 50.73102 | -3.41820 | 99 ft | 0 kts | 131° |
| 2026-04-22 20:33 | 50.73105 | -3.41825 | 100 ft | 3 kts | 130° |
| 2026-04-22 20:33 | 50.73120 | -3.41857 | 99 ft | 4 kts | 148° |
| 2026-04-22 20:33 | 50.73141 | -3.41867 | 98 ft | 4 kts | 182° |
| 2026-04-22 20:34 | 50.73163 | -3.41854 | 99 ft | 4 kts | 229° |
| 2026-04-22 20:34 | 50.73176 | -3.41825 | 99 ft | 1 kts | 238° |
| 2026-04-22 20:34 | 50.73176 | -3.41824 | 99 ft | 3 kts | 238° |
| 2026-04-22 20:35 | 50.73177 | -3.41824 | 99 ft | 0 kts | 238° |
| 2026-04-22 20:37 | 50.73176 | -3.41825 | 99 ft | 1 kts | 238° |
| 2026-04-22 20:37 | 50.73144 | -3.41908 | 99 ft | 14 kts | 239° |
| 2026-04-22 20:37 | 50.73100 | -3.42055 | 100 ft | 16 kts | 245° |
| 2026-04-22 20:37 | 50.73062 | -3.42225 | 100 ft | 18 kts | 276° |
| 2026-04-22 20:38 | 50.73071 | -3.42430 | 99 ft | 20 kts | 270° |
| 2026-04-22 20:38 | 50.73075 | -3.42560 | 100 ft | 10 kts | 280° |
| 2026-04-22 20:38 | 50.73095 | -3.42690 | 99 ft | 16 kts | 296° |
| 2026-04-22 20:38 | 50.73189 | -3.42776 | 99 ft | 13 kts | 5° |
| 2026-04-22 20:39 | 50.73237 | -3.42619 | 101 ft | 33 kts | 76° |
| 2026-04-22 20:39 | 50.73354 | -3.41872 | 98 ft | 102 kts | 76° |
| 2026-04-22 20:39 | 50.73547 | -3.40574 | 279 ft | 130 kts | 81° |
| 2026-04-22 20:39 | 50.73744 | -3.39181 | 873 ft | 128 kts | 78° |
| 2026-04-22 20:40 | 50.73953 | -3.37857 | 1423 ft | 129 kts | 81° |
| 2026-04-22 20:40 | 50.74185 | -3.36357 | 1557 ft | 156 kts | 82° |
| 2026-04-22 20:40 | 50.74233 | -3.34531 | 1662 ft | 179 kts | 108° |
| 2026-04-22 20:40 | 50.73387 | -3.32938 | 1932 ft | 214 kts | 148° |
| 2026-04-22 20:41 | 50.71809 | -3.32687 | 2634 ft | 247 kts | 186° |
| 2026-04-22 20:41 | 50.70187 | -3.33750 | 3683 ft | 257 kts | 202° |
| 2026-04-22 20:41 | 50.68662 | -3.35258 | 4717 ft | 261 kts | 208° |
| 2026-04-22 20:41 | 50.67147 | -3.36899 | 5649 ft | 266 kts | 210° |
| 2026-04-22 20:42 | 50.65604 | -3.38554 | 6560 ft | 269 kts | 209° |
| 2026-04-22 20:42 | 50.64023 | -3.40175 | 7408 ft | 273 kts | 208° |
| 2026-04-22 20:42 | 50.62400 | -3.41769 | 8249 ft | 277 kts | 208° |
| 2026-04-22 20:42 | 50.60735 | -3.43352 | 9104 ft | 281 kts | 208° |
| 2026-04-22 20:43 | 50.59043 | -3.44928 | 9970 ft | 284 kts | 209° |
| 2026-04-22 20:43 | 50.57246 | -3.46238 | 10754 ft | 286 kts | 196° |
| 2026-04-22 20:43 | 50.55269 | -3.46835 | 11134 ft | 297 kts | 185° |
| 2026-04-22 20:43 | 50.53152 | -3.47171 | 11248 ft | 320 kts | 183° |
| 2026-04-22 20:44 | 50.50888 | -3.47035 | 11274 ft | 329 kts | 171° |
| 2026-04-22 20:44 | 50.48671 | -3.46130 | 11274 ft | 331 kts | 159° |
| 2026-04-22 20:44 | 50.46602 | -3.44574 | 11275 ft | 330 kts | 153° |
| 2026-04-22 20:44 | 50.44554 | -3.42913 | 11268 ft | 332 kts | 153° |
| 2026-04-22 20:45 | 50.42499 | -3.41249 | 11269 ft | 333 kts | 153° |
| 2026-04-22 20:45 | 50.40437 | -3.39579 | 11267 ft | 333 kts | 153° |
| 2026-04-22 20:45 | 50.38347 | -3.37892 | 11272 ft | 334 kts | 153° |
| 2026-04-22 20:45 | 50.36284 | -3.36229 | 11268 ft | 334 kts | 153° |
| 2026-04-22 20:46 | 50.32171 | -3.32910 | 11269 ft | 335 kts | 153° |
| 2026-04-22 20:46 | 50.30099 | -3.31241 | 11277 ft | 335 kts | 153° |
| 2026-04-22 20:46 | 50.28028 | -3.29576 | 11274 ft | 335 kts | 153° |
| 2026-04-22 20:47 | 50.25959 | -3.27909 | 11277 ft | 335 kts | 153° |
| 2026-04-22 20:47 | 50.23883 | -3.26261 | 11283 ft | 334 kts | 156° |
| 2026-04-22 20:47 | 50.21682 | -3.25112 | 11286 ft | 334 kts | 167° |
| 2026-04-22 20:47 | 50.19420 | -3.24304 | 11282 ft | 334 kts | 167° |
| 2026-04-22 20:48 | 50.17159 | -3.23489 | 11283 ft | 333 kts | 167° |
| 2026-04-22 20:48 | 50.14894 | -3.22669 | 11287 ft | 334 kts | 167° |
| 2026-04-22 20:48 | 50.12634 | -3.21852 | 11285 ft | 334 kts | 167° |
| 2026-04-22 20:48 | 50.10369 | -3.21035 | 11280 ft | 334 kts | 167° |
| 2026-04-22 20:49 | 50.08103 | -3.20219 | 11282 ft | 334 kts | 167° |
| 2026-04-22 20:49 | 50.05834 | -3.19407 | 11278 ft | 335 kts | 166° |
| 2026-04-22 20:49 | 50.03560 | -3.18591 | 11275 ft | 335 kts | 166° |
| 2026-04-22 20:49 | 50.01289 | -3.17778 | 11278 ft | 335 kts | 166° |
| 2026-04-22 20:50 | 49.99064 | -3.16755 | 11279 ft | 333 kts | 158° |
| 2026-04-22 20:50 | 49.96907 | -3.15421 | 11278 ft | 334 kts | 157° |
| 2026-04-22 20:50 | 49.94754 | -3.14086 | 11279 ft | 334 kts | 157° |
| 2026-04-22 20:50 | 49.92595 | -3.12742 | 11275 ft | 333 kts | 158° |
| 2026-04-22 20:51 | 49.90446 | -3.11401 | 11272 ft | 333 kts | 158° |
| 2026-04-22 20:51 | 49.88288 | -3.10061 | 11270 ft | 334 kts | 158° |
| 2026-04-22 20:51 | 49.86157 | -3.08745 | 11268 ft | 334 kts | 158° |
| 2026-04-22 20:51 | 49.83967 | -3.07398 | 11269 ft | 335 kts | 158° |
| 2026-04-22 20:52 | 49.81827 | -3.06081 | 11027 ft | 326 kts | 158° |
| 2026-04-22 20:52 | 49.79734 | -3.04792 | 10636 ft | 322 kts | 158° |
| 2026-04-22 20:52 | 49.77695 | -3.03536 | 10349 ft | 316 kts | 158° |
| 2026-04-22 20:52 | 49.75669 | -3.02289 | 10228 ft | 304 kts | 158° |
| 2026-04-22 20:53 | 49.73764 | -3.01116 | 10070 ft | 294 kts | 158° |
| 2026-04-22 20:53 | 49.71876 | -2.99955 | 9769 ft | 290 kts | 157° |
| 2026-04-22 20:53 | 49.70013 | -2.98811 | 9426 ft | 287 kts | 158° |
| 2026-04-22 20:53 | 49.68132 | -2.97658 | 9057 ft | 286 kts | 158° |
| 2026-04-22 20:54 | 49.66310 | -2.96542 | 8726 ft | 284 kts | 157° |
| 2026-04-22 20:54 | 49.64480 | -2.95422 | 8378 ft | 282 kts | 157° |
| 2026-04-22 20:54 | 49.62657 | -2.94308 | 8034 ft | 281 kts | 157° |
| 2026-04-22 20:54 | 49.60855 | -2.93213 | 7731 ft | 274 kts | 155° |
| 2026-04-22 20:55 | 49.59111 | -2.92155 | 7345 ft | 264 kts | 155° |
| 2026-04-22 20:55 | 49.57444 | -2.91146 | 7025 ft | 252 kts | 154° |
| 2026-04-22 20:55 | 49.55852 | -2.90176 | 6708 ft | 241 kts | 155° |
| 2026-04-22 20:55 | 49.54324 | -2.89245 | 6381 ft | 231 kts | 155° |
| 2026-04-22 20:56 | 49.52857 | -2.88353 | 6053 ft | 221 kts | 154° |
| 2026-04-22 20:56 | 49.51453 | -2.87499 | 5719 ft | 212 kts | 155° |
| 2026-04-22 20:56 | 49.50109 | -2.86684 | 5393 ft | 203 kts | 155° |
| 2026-04-22 20:56 | 49.48818 | -2.85903 | 5057 ft | 197 kts | 156° |
| 2026-04-22 20:57 | 49.47568 | -2.85148 | 4714 ft | 189 kts | 155° |